createdAt,value
2017-12-13T00:02:27.326Z,13.90
2017-12-13T00:04:55.553Z,13.90
2017-12-13T00:07:23.004Z,14.00
2017-12-13T00:09:51.234Z,14.50
2017-12-13T00:12:18.689Z,15.80
2017-12-13T00:14:46.138Z,14.43
2017-12-13T00:17:13.594Z,18.87
2017-12-13T00:19:41.806Z,14.07
2017-12-13T00:22:10.035Z,15.03
2017-12-13T00:24:38.259Z,14.73
2017-12-13T00:27:06.492Z,14.40
2017-12-13T00:29:33.941Z,14.07
2017-12-13T00:32:01.398Z,16.57
2017-12-13T00:34:28.854Z,14.50
2017-12-13T00:36:56.312Z,17.10
2017-12-13T00:39:23.754Z,14.93
2017-12-13T00:41:51.214Z,18.00
2017-12-13T00:44:18.663Z,12.80
2017-12-13T00:46:46.130Z,12.70
2017-12-13T00:49:13.571Z,12.70
2017-12-13T00:51:41.020Z,14.30
2017-12-13T00:54:08.459Z,11.10
2017-12-13T00:56:36.682Z,16.70
2017-12-13T00:59:04.130Z,10.20
2017-12-13T01:01:31.585Z,13.03
2017-12-13T01:03:59.039Z,14.10
2017-12-13T01:06:26.506Z,15.17
2017-12-13T01:08:53.958Z,12.60
2017-12-13T01:11:21.413Z,19.00
2017-12-13T01:13:49.634Z,11.83
2017-12-13T01:16:17.085Z,12.80
2017-12-13T01:18:44.567Z,14.10
2017-12-13T01:21:12.014Z,12.33
2017-12-13T01:23:39.466Z,15.03
2017-12-13T01:26:06.910Z,15.70
2017-12-13T01:28:35.166Z,14.60
2017-12-13T01:31:02.618Z,10.70
2017-12-13T01:33:30.070Z,14.27
2017-12-13T01:36:00.198Z,14.10
2017-12-13T01:38:28.416Z,12.33
2017-12-13T01:40:56.643Z,12.07
2017-12-13T01:43:24.098Z,11.73
2017-12-13T01:45:51.546Z,12.70
2017-12-13T01:48:19.762Z,12.77
2017-12-13T01:50:47.218Z,13.13
2017-12-13T01:53:15.440Z,16.27
2017-12-13T01:55:42.883Z,14.13
2017-12-13T01:58:11.114Z,13.10
2017-12-13T02:00:38.575Z,16.23
2017-12-13T02:03:06.028Z,12.30
2017-12-13T02:05:33.488Z,14.67
2017-12-13T02:10:39.308Z,11.67
2017-12-13T02:13:06.752Z,12.10
2017-12-13T02:15:34.257Z,13.80
2017-12-13T02:18:01.707Z,12.43
2017-12-13T02:20:29.170Z,12.30
2017-12-13T02:22:56.626Z,14.03
2017-12-13T02:25:24.090Z,13.00
2017-12-13T02:27:51.534Z,14.33
2017-12-13T02:30:18.999Z,13.93
2017-12-13T02:32:46.441Z,13.37
2017-12-13T02:35:13.890Z,13.10
2017-12-13T02:37:42.099Z,14.27
2017-12-13T02:40:21.406Z,11.10
2017-12-13T02:42:48.853Z,13.93
2017-12-13T02:45:16.306Z,12.27
2017-12-13T02:47:43.754Z,17.00
2017-12-13T02:50:11.979Z,13.10
2017-12-13T02:52:39.434Z,13.50
2017-12-13T02:55:06.893Z,13.83
2017-12-13T02:57:34.338Z,15.30
2017-12-13T03:00:01.801Z,14.63
2017-12-13T03:02:29.251Z,12.17
2017-12-13T03:04:56.705Z,12.47
2017-12-13T03:07:24.921Z,12.50
2017-12-13T03:09:52.361Z,13.07
2017-12-13T03:12:19.819Z,12.67
2017-12-13T03:14:47.268Z,13.37
2017-12-13T03:17:15.537Z,17.60
2017-12-13T03:19:42.970Z,13.97
2017-12-13T03:22:11.182Z,12.30
2017-12-13T03:24:38.628Z,13.53
2017-12-13T03:27:06.837Z,14.03
2017-12-13T03:29:34.287Z,16.70
2017-12-13T03:32:03.249Z,14.40
2017-12-13T03:34:30.692Z,17.10
2017-12-13T03:36:58.159Z,12.70
2017-12-13T03:39:25.609Z,13.80
2017-12-13T03:41:53.095Z,17.40
2017-12-13T03:44:20.538Z,15.07
2017-12-13T03:46:47.986Z,15.80
2017-12-13T03:49:15.437Z,14.07
2017-12-13T03:51:42.906Z,11.30
2017-12-13T03:54:10.357Z,11.60
2017-12-13T03:56:38.573Z,12.00
2017-12-13T03:59:06.026Z,13.00
2017-12-13T04:01:33.466Z,12.87
2017-12-13T04:04:00.926Z,13.13
2017-12-13T04:06:29.134Z,14.60
2017-12-13T04:08:57.349Z,15.40
2017-12-13T04:11:24.788Z,12.23
2017-12-13T04:13:52.245Z,14.93
2017-12-13T04:16:19.688Z,13.97
2017-12-13T04:18:47.901Z,13.77
2017-12-13T04:21:15.354Z,12.10
2017-12-13T04:23:42.809Z,14.87
2017-12-13T04:26:10.261Z,13.07
2017-12-13T04:28:37.739Z,14.10
2017-12-13T04:31:05.193Z,13.27
2017-12-13T04:33:32.651Z,13.97
2017-12-13T04:36:00.102Z,13.63
2017-12-13T04:38:27.549Z,15.20
2017-12-13T04:40:55.006Z,14.03
2017-12-13T04:43:22.454Z,11.60
2017-12-13T04:45:50.669Z,14.50
2017-12-13T04:48:18.175Z,13.20
2017-12-13T04:50:45.585Z,12.20
2017-12-13T04:53:13.022Z,14.90
2017-12-13T04:55:40.476Z,12.20
2017-12-13T04:58:07.925Z,14.50
2017-12-13T05:00:37.274Z,12.77
2017-12-13T05:03:04.723Z,14.17
2017-12-13T05:05:32.176Z,12.60
2017-12-13T05:07:59.617Z,15.37
2017-12-13T05:10:27.079Z,13.60
2017-12-13T05:12:54.525Z,13.30
2017-12-13T05:15:21.982Z,12.57
2017-12-13T05:17:50.198Z,12.23
2017-12-13T05:20:17.650Z,10.97
2017-12-13T05:22:45.108Z,12.40
2017-12-13T05:25:12.568Z,11.67
2017-12-13T05:27:40.778Z,12.53
2017-12-13T05:30:08.231Z,11.93
2017-12-13T05:32:36.443Z,15.77
2017-12-13T05:35:03.886Z,13.07
2017-12-13T05:37:31.363Z,11.13
2017-12-13T05:39:58.790Z,11.67
2017-12-13T05:42:26.232Z,11.40
2017-12-13T05:44:53.677Z,18.63
2017-12-13T05:47:21.905Z,12.27
2017-12-13T05:49:50.105Z,10.13
2017-12-13T05:52:17.554Z,11.83
2017-12-13T05:54:44.992Z,11.40
2017-12-13T05:57:12.445Z,13.50
2017-12-13T05:59:39.901Z,14.37
2017-12-13T06:02:07.363Z,11.93
2017-12-13T06:04:34.812Z,12.03
2017-12-13T06:07:02.265Z,12.83
2017-12-13T06:09:30.469Z,10.63
2017-12-13T06:11:57.927Z,9.57
2017-12-13T06:14:25.378Z,11.53
2017-12-13T06:16:52.834Z,13.47
2017-12-13T06:19:20.295Z,11.07
2017-12-13T06:21:47.743Z,13.33
2017-12-13T06:24:15.957Z,13.30
2017-12-13T06:26:44.166Z,11.20
2017-12-13T06:29:11.629Z,11.00
2017-12-13T06:31:39.082Z,13.97
2017-12-13T06:34:07.306Z,12.87
2017-12-13T06:36:34.740Z,13.07
2017-12-13T06:39:02.211Z,14.70
2017-12-13T06:41:29.648Z,11.63
2017-12-13T06:43:57.101Z,12.23
2017-12-13T06:46:24.562Z,11.03
2017-12-13T06:48:52.781Z,10.77
2017-12-13T06:51:20.233Z,10.33
2017-12-13T06:53:47.681Z,9.63
2017-12-13T06:56:15.127Z,11.57
2017-12-13T06:58:42.587Z,10.87
2017-12-13T07:01:10.025Z,10.07
2017-12-13T07:03:37.490Z,9.53
2017-12-13T07:06:04.930Z,10.57
2017-12-13T07:08:32.402Z,10.30
2017-12-13T07:10:59.834Z,7.90
2017-12-13T07:13:27.280Z,10.87
2017-12-13T07:15:54.733Z,11.00
2017-12-13T07:18:22.202Z,8.70
2017-12-13T07:20:49.642Z,9.67
2017-12-13T07:23:17.846Z,11.70
2017-12-13T07:25:45.306Z,10.70
2017-12-13T07:28:12.761Z,10.90
2017-12-13T07:30:40.977Z,10.67
2017-12-13T07:33:08.431Z,11.93
2017-12-13T07:35:35.873Z,8.03
2017-12-13T07:38:03.312Z,8.83
2017-12-13T07:40:31.528Z,9.00
2017-12-13T07:42:58.967Z,8.93
2017-12-13T07:45:26.446Z,7.73
2017-12-13T07:47:54.671Z,10.17
2017-12-13T07:50:22.107Z,6.73
2017-12-13T07:52:49.545Z,6.67
2017-12-13T07:55:17.762Z,7.20
2017-12-13T07:57:45.205Z,8.80
2017-12-13T08:00:12.673Z,9.23
2017-12-13T08:02:40.122Z,6.90
2017-12-13T08:05:07.570Z,11.70
2017-12-13T08:07:35.025Z,8.03
2017-12-13T08:10:02.480Z,7.03
2017-12-13T08:12:29.934Z,7.80
2017-12-13T08:14:57.382Z,6.47
2017-12-13T08:17:25.594Z,6.67
2017-12-13T08:19:53.050Z,6.97
2017-12-13T08:22:21.266Z,5.20
2017-12-13T08:24:48.707Z,6.30
2017-12-13T08:27:16.149Z,6.27
2017-12-13T08:29:43.593Z,5.87
2017-12-13T08:32:11.054Z,5.57
2017-12-13T08:34:38.509Z,6.37
2017-12-13T08:37:05.966Z,8.40
2017-12-13T08:39:33.408Z,4.87
2017-12-13T08:42:00.854Z,5.30
2017-12-13T08:44:28.299Z,5.03
2017-12-13T08:46:56.537Z,8.80
2017-12-13T08:49:23.973Z,5.37
2017-12-13T08:51:51.418Z,5.60
2017-12-13T08:54:18.862Z,4.80
2017-12-13T08:56:46.309Z,5.73
2017-12-13T08:59:14.522Z,4.47
2017-12-13T09:01:41.967Z,5.30
2017-12-13T09:04:09.424Z,4.93
2017-12-13T09:06:36.873Z,4.50
2017-12-13T09:09:04.341Z,7.10
2017-12-13T09:11:32.544Z,4.43
2017-12-13T09:14:00.012Z,5.43
2017-12-13T09:16:27.462Z,4.80
2017-12-13T09:18:54.923Z,8.53
2017-12-13T09:21:22.370Z,6.47
2017-12-13T09:23:49.805Z,5.83
2017-12-13T09:26:17.250Z,7.53
2017-12-13T09:28:45.466Z,4.90
2017-12-13T09:31:12.921Z,5.80
2017-12-13T09:33:41.129Z,5.40
2017-12-13T09:36:09.350Z,5.80
2017-12-13T09:38:36.814Z,4.87
2017-12-13T09:41:05.036Z,4.40
2017-12-13T09:43:32.475Z,4.50
2017-12-13T09:45:59.925Z,6.70
2017-12-13T09:48:27.370Z,6.00
2017-12-13T09:50:54.818Z,7.67
2017-12-13T09:53:22.270Z,6.27
2017-12-13T09:55:49.731Z,4.67
2017-12-13T09:58:17.926Z,3.83
2017-12-13T10:00:45.380Z,4.00
2017-12-13T10:03:12.823Z,4.23
2017-12-13T10:05:40.291Z,4.43
2017-12-13T10:08:07.758Z,3.87
2017-12-13T10:10:35.211Z,6.33
2017-12-13T10:13:02.662Z,4.13
2017-12-13T10:15:30.141Z,4.67
2017-12-13T10:17:57.598Z,5.60
2017-12-13T10:20:25.078Z,6.73
2017-12-13T10:22:53.274Z,5.77
2017-12-13T10:25:20.713Z,6.10
2017-12-13T10:27:48.950Z,5.60
2017-12-13T10:30:16.403Z,4.80
2017-12-13T10:32:43.862Z,4.00
2017-12-13T10:35:11.306Z,6.33
2017-12-13T10:37:38.759Z,7.07
2017-12-13T10:40:06.202Z,6.30
2017-12-13T10:42:33.646Z,4.37
2017-12-13T10:45:01.106Z,4.97
2017-12-13T10:47:29.327Z,5.20
2017-12-13T10:49:56.765Z,4.70
2017-12-13T10:52:24.978Z,4.50
2017-12-13T10:54:52.428Z,5.30
2017-12-13T10:57:19.877Z,3.33
2017-12-13T10:59:47.329Z,3.93
2017-12-13T11:02:14.786Z,6.83
2017-12-13T11:04:42.997Z,5.60
2017-12-13T11:07:11.210Z,5.00
2017-12-13T11:09:39.414Z,3.60
2017-12-13T11:12:06.919Z,4.13
2017-12-13T11:14:34.340Z,4.90
2017-12-13T11:17:02.570Z,3.47
2017-12-13T11:19:30.009Z,3.50
2017-12-13T11:21:57.459Z,3.50
2017-12-13T11:24:25.702Z,5.50
2017-12-13T11:26:53.158Z,6.33
2017-12-13T11:29:20.618Z,5.83
2017-12-13T11:31:48.078Z,6.77
2017-12-13T11:34:15.527Z,10.73
2017-12-13T11:36:42.967Z,4.43
2017-12-13T11:39:10.418Z,3.57
2017-12-13T11:41:37.866Z,3.53
2017-12-13T11:44:05.329Z,3.50
2017-12-13T11:46:32.777Z,6.00
2017-12-13T11:49:00.233Z,4.40
2017-12-13T11:51:27.693Z,7.33
2017-12-13T11:53:55.157Z,8.27
2017-12-13T11:56:22.624Z,4.70
2017-12-13T11:58:50.839Z,4.33
2017-12-13T12:01:19.065Z,3.90
2017-12-13T12:03:46.524Z,3.30
2017-12-13T12:06:13.976Z,4.33
2017-12-13T12:08:41.425Z,3.40
2017-12-13T12:11:09.654Z,4.47
2017-12-13T12:13:37.095Z,5.10
2017-12-13T12:16:04.550Z,3.23
2017-12-13T12:18:31.990Z,4.63
2017-12-13T12:20:59.453Z,5.80
2017-12-13T12:23:26.903Z,3.27
2017-12-13T12:25:54.371Z,3.37
2017-12-13T12:28:21.829Z,3.07
2017-12-13T12:30:50.054Z,3.30
2017-12-13T12:33:18.266Z,6.90
2017-12-13T12:35:45.722Z,2.80
2017-12-13T12:38:13.167Z,3.00
2017-12-13T12:40:40.646Z,5.93
2017-12-13T12:43:08.857Z,4.47
2017-12-13T12:45:37.086Z,3.10
2017-12-13T12:48:05.302Z,3.43
2017-12-13T12:50:32.751Z,6.03
2017-12-13T12:53:00.973Z,5.03
2017-12-13T12:55:28.417Z,3.47
2017-12-13T12:57:55.868Z,3.37
2017-12-13T13:00:24.105Z,2.93
2017-12-13T13:02:51.574Z,3.10
2017-12-13T13:05:19.014Z,7.03
2017-12-13T13:07:46.470Z,3.43
2017-12-13T13:10:14.672Z,2.87
2017-12-13T13:12:42.894Z,2.67
2017-12-13T13:15:11.110Z,2.90
2017-12-13T13:17:38.562Z,3.30
2017-12-13T13:20:06.770Z,3.17
2017-12-13T13:22:35.014Z,4.60
2017-12-13T13:25:02.474Z,2.73
2017-12-13T13:27:29.918Z,2.73
2017-12-13T13:29:57.360Z,2.80
2017-12-13T13:32:25.573Z,2.67
2017-12-13T13:34:53.018Z,3.27
2017-12-13T13:37:20.469Z,4.13
2017-12-13T13:39:47.925Z,2.53
2017-12-13T13:42:16.164Z,2.93
2017-12-13T13:44:43.602Z,3.27
2017-12-13T13:47:11.058Z,3.37
2017-12-13T13:49:39.277Z,2.20
2017-12-13T13:52:06.717Z,2.40
2017-12-13T13:54:34.172Z,4.23
2017-12-13T13:57:01.611Z,3.83
2017-12-13T13:59:29.059Z,2.20
2017-12-13T14:01:56.510Z,2.67
2017-12-13T14:04:24.726Z,2.60
2017-12-13T14:06:52.169Z,4.37
2017-12-13T14:09:19.623Z,2.43
2017-12-13T14:11:47.069Z,3.73
2017-12-13T14:14:14.518Z,3.40
2017-12-13T14:16:42.729Z,4.17
2017-12-13T14:19:10.172Z,2.73
2017-12-13T14:21:38.377Z,2.27
2017-12-13T14:24:05.830Z,1.97
2017-12-13T14:26:33.284Z,3.20
2017-12-13T14:29:00.738Z,2.77
2017-12-13T14:31:28.186Z,2.23
2017-12-13T14:33:55.634Z,2.40
2017-12-13T14:36:23.077Z,2.20
2017-12-13T14:38:50.531Z,2.17
2017-12-13T14:41:17.970Z,2.60
2017-12-13T14:43:46.198Z,3.47
2017-12-13T14:46:13.657Z,2.57
2017-12-13T14:48:41.126Z,2.43
2017-12-13T14:51:08.565Z,2.83
2017-12-13T14:53:36.022Z,3.37
2017-12-13T14:56:03.477Z,2.40
2017-12-13T14:58:31.706Z,3.00
2017-12-13T15:00:59.926Z,4.00
2017-12-13T15:03:27.402Z,2.40
2017-12-13T15:05:54.849Z,4.10
2017-12-13T15:08:22.306Z,2.90
2017-12-13T15:10:49.761Z,2.43
2017-12-13T15:13:17.977Z,2.53
2017-12-13T15:15:45.436Z,2.20
2017-12-13T15:18:12.902Z,5.37
2017-12-13T15:20:40.369Z,2.80
2017-12-13T15:23:08.582Z,2.00
2017-12-13T15:25:36.036Z,2.87
2017-12-13T15:28:03.476Z,2.40
2017-12-13T15:30:30.942Z,2.50
2017-12-13T15:32:58.412Z,2.17
2017-12-13T15:35:25.873Z,2.70
2017-12-13T15:37:54.079Z,2.60
2017-12-13T15:40:21.595Z,2.20
2017-12-13T15:42:49.034Z,4.53
2017-12-13T15:45:16.487Z,2.73
2017-12-13T15:47:43.969Z,2.20
2017-12-13T15:50:11.412Z,3.83
2017-12-13T15:52:39.642Z,2.87
2017-12-13T15:55:07.086Z,2.50
2017-12-13T15:57:34.550Z,3.00
2017-12-13T16:00:02.000Z,5.10
2017-12-13T16:02:29.450Z,2.07
2017-12-13T16:04:56.921Z,2.00
2017-12-13T16:07:24.374Z,2.50
2017-12-13T16:09:51.822Z,2.37
2017-12-13T16:12:19.270Z,1.90
2017-12-13T16:14:47.479Z,2.20
2017-12-13T16:17:14.931Z,2.80
2017-12-13T16:19:42.369Z,2.80
2017-12-13T16:22:09.837Z,2.13
2017-12-13T16:24:37.273Z,2.20
2017-12-13T16:27:04.742Z,2.50
2017-12-13T16:29:32.181Z,2.20
2017-12-13T16:31:59.631Z,2.10
2017-12-13T16:34:27.086Z,2.73
2017-12-13T16:36:54.551Z,2.30
2017-12-13T16:39:22.006Z,2.20
2017-12-13T16:41:49.447Z,2.40
2017-12-13T16:44:16.895Z,2.20
2017-12-13T16:46:44.341Z,3.90
2017-12-13T16:49:12.555Z,2.40
2017-12-13T16:51:39.999Z,2.50
2017-12-13T16:54:07.454Z,2.23
2017-12-13T16:56:34.922Z,2.40
2017-12-13T16:59:02.378Z,2.00
2017-12-13T17:01:29.822Z,2.43
2017-12-13T17:03:57.266Z,2.10
2017-12-13T17:06:24.717Z,2.40
2017-12-13T17:08:52.932Z,2.00
2017-12-13T17:11:20.378Z,2.60
2017-12-13T17:13:47.831Z,2.40
2017-12-13T17:16:15.283Z,4.73
2017-12-13T17:18:43.494Z,2.80
2017-12-13T17:21:10.938Z,2.33
2017-12-13T17:23:38.482Z,2.93
2017-12-13T17:26:05.942Z,3.13
2017-12-13T17:28:33.402Z,2.70
2017-12-13T17:31:01.623Z,2.70
2017-12-13T17:33:29.055Z,2.50
2017-12-13T17:35:56.529Z,2.63
2017-12-13T17:38:23.968Z,3.10
2017-12-13T17:40:51.425Z,2.80
2017-12-13T17:43:18.866Z,2.97
2017-12-13T17:45:46.330Z,3.00
2017-12-13T17:48:13.789Z,2.77
2017-12-13T17:50:41.245Z,3.27
2017-12-13T17:53:08.690Z,3.50
2017-12-13T17:55:36.174Z,3.20
2017-12-13T17:58:03.614Z,3.30
2017-12-13T18:00:31.069Z,3.90
2017-12-13T18:02:58.512Z,3.80
2017-12-13T18:05:26.001Z,3.60
2017-12-13T18:07:54.221Z,3.50
2017-12-13T18:10:21.670Z,3.40
2017-12-13T18:12:49.117Z,3.80
2017-12-13T18:15:16.591Z,4.30
2017-12-13T18:17:44.075Z,3.90
2017-12-13T18:20:11.550Z,3.90
2017-12-13T18:22:39.786Z,3.67
2017-12-13T18:25:07.229Z,6.53
2017-12-13T18:27:35.474Z,4.00
2017-12-13T18:30:02.930Z,5.17
2017-12-13T18:32:30.382Z,4.23
2017-12-13T18:34:57.826Z,7.30
2017-12-13T18:37:25.284Z,3.93
2017-12-13T18:39:52.726Z,4.57
2017-12-13T18:42:20.182Z,4.73
2017-12-13T18:44:48.429Z,4.40
2017-12-13T18:47:16.696Z,6.23
2017-12-13T18:49:44.926Z,4.50
2017-12-13T18:52:12.382Z,6.60
2017-12-13T18:54:39.830Z,5.13
2017-12-13T18:57:08.050Z,5.07
2017-12-13T18:59:35.501Z,7.00
2017-12-13T19:02:02.953Z,6.43
2017-12-13T19:04:30.398Z,5.10
2017-12-13T19:06:57.875Z,7.60
2017-12-13T19:09:25.346Z,5.47
2017-12-13T19:11:53.578Z,7.60
2017-12-13T19:14:21.040Z,4.93
2017-12-13T19:16:48.510Z,7.43
2017-12-13T19:19:16.017Z,6.03
2017-12-13T19:21:43.498Z,6.60
2017-12-13T19:24:10.959Z,10.63
2017-12-13T19:26:38.409Z,6.77
2017-12-13T19:29:05.866Z,8.93
2017-12-13T19:31:33.315Z,6.07
2017-12-13T19:34:00.770Z,7.47
2017-12-13T19:36:28.222Z,9.00
2017-12-13T19:38:55.671Z,6.33
2017-12-13T19:41:23.881Z,8.80
2017-12-13T19:43:52.106Z,6.57
2017-12-13T19:46:20.358Z,6.33
2017-12-13T19:48:47.822Z,8.07
2017-12-13T19:51:15.261Z,6.97
2017-12-13T19:53:42.709Z,6.97
2017-12-13T19:56:10.166Z,6.93
2017-12-13T19:58:37.638Z,7.23
2017-12-13T20:01:05.086Z,8.00
2017-12-13T20:03:32.545Z,12.20
2017-12-13T20:06:00.038Z,7.60
2017-12-13T20:08:27.487Z,8.73
2017-12-13T20:10:54.934Z,6.80
2017-12-13T20:13:22.403Z,7.60
2017-12-13T20:15:49.853Z,6.70
2017-12-13T20:18:17.322Z,7.50
2017-12-13T20:20:44.764Z,6.50
2017-12-13T20:23:12.205Z,7.43
2017-12-13T20:25:39.657Z,8.70
2017-12-13T20:28:07.110Z,7.00
2017-12-13T20:30:34.565Z,8.40
2017-12-13T20:33:02.009Z,8.07
2017-12-13T20:35:29.470Z,7.03
2017-12-13T20:37:56.952Z,8.80
2017-12-13T20:40:24.410Z,7.77
2017-12-13T20:42:51.862Z,9.10
2017-12-13T20:45:19.316Z,8.90
2017-12-13T20:47:46.764Z,8.47
2017-12-13T20:50:14.973Z,8.97
2017-12-13T20:52:42.421Z,8.80
2017-12-13T20:55:09.886Z,8.93
2017-12-13T20:57:37.338Z,12.03
2017-12-13T21:00:04.789Z,12.57
2017-12-13T21:02:32.239Z,9.70
2017-12-13T21:04:59.685Z,10.00
2017-12-13T21:07:27.142Z,10.07
2017-12-13T21:09:54.590Z,9.87
2017-12-13T21:12:22.049Z,10.50
2017-12-13T21:14:49.502Z,9.07
2017-12-13T21:17:17.025Z,12.40
2017-12-13T21:19:44.417Z,10.53
2017-12-13T21:22:12.642Z,12.07
2017-12-13T21:24:40.099Z,10.27
2017-12-13T21:27:07.546Z,9.37
2017-12-13T21:29:34.993Z,9.77
2017-12-13T21:32:02.447Z,10.30
2017-12-13T21:34:29.890Z,9.73
2017-12-13T21:36:58.110Z,8.93
2017-12-13T21:39:26.325Z,8.43
2017-12-13T21:41:53.781Z,9.20
2017-12-13T21:44:21.232Z,9.23
2017-12-13T21:46:48.683Z,8.50
2017-12-13T21:49:16.125Z,9.43
2017-12-13T21:51:44.341Z,10.70
2017-12-13T21:54:11.784Z,8.17
2017-12-13T21:56:39.245Z,10.50
2017-12-13T21:59:06.701Z,8.33
2017-12-13T22:01:34.178Z,9.33
2017-12-13T22:04:01.611Z,7.60
2017-12-13T22:06:29.073Z,7.40
2017-12-13T22:08:57.286Z,8.30
2017-12-13T22:11:24.764Z,8.90
2017-12-13T22:13:52.216Z,9.70
2017-12-13T22:16:19.685Z,7.47
2017-12-13T22:18:47.910Z,7.77
2017-12-13T22:21:16.142Z,6.47
2017-12-13T22:23:44.349Z,7.50
2017-12-13T22:26:11.810Z,7.50
2017-12-13T22:28:39.261Z,6.57
2017-12-13T22:31:06.706Z,8.00
2017-12-13T22:33:34.162Z,6.57
2017-12-13T22:36:01.607Z,6.13
2017-12-13T22:38:29.049Z,5.63
2017-12-13T22:40:57.269Z,5.73
2017-12-13T22:43:24.729Z,6.07
2017-12-13T22:45:52.190Z,6.07
2017-12-13T22:48:19.646Z,5.87
2017-12-13T22:50:47.105Z,5.37
2017-12-13T22:53:14.548Z,6.57
2017-12-13T22:55:41.995Z,5.07
2017-12-13T22:58:09.445Z,4.93
2017-12-13T23:00:48.616Z,4.80
2017-12-13T23:03:16.075Z,4.40
2017-12-13T23:05:43.532Z,5.17
2017-12-13T23:08:10.983Z,4.20
2017-12-13T23:10:38.427Z,4.73
2017-12-13T23:13:05.869Z,3.80
2017-12-13T23:15:33.326Z,6.30
2017-12-13T23:18:00.770Z,4.00
2017-12-13T23:20:28.997Z,3.50
2017-12-13T23:22:56.633Z,3.63
2017-12-13T23:25:24.117Z,3.67
2017-12-13T23:27:52.317Z,3.50
2017-12-13T23:30:20.542Z,3.70
2017-12-13T23:32:48.002Z,3.17
2017-12-13T23:35:15.454Z,3.40
2017-12-13T23:37:42.897Z,3.10
2017-12-13T23:40:11.118Z,3.57
2017-12-13T23:42:38.562Z,3.40
2017-12-13T23:45:07.475Z,2.60
2017-12-13T23:47:34.926Z,3.13
2017-12-13T23:50:02.389Z,2.57
2017-12-13T23:52:29.829Z,2.73
2017-12-13T23:54:57.278Z,2.53
2017-12-13T23:57:24.725Z,2.90
2017-12-13T23:59:52.177Z,2.80
